Time;durP1;ratioP1;P1;durP2;ratioP2;P2;SDS_P1;SDS_P2;PMS_P1;PMS_P2;Temp;Humidity;BMP_temperature;BMP_pressure;BME280_temperature;BME280_humidity;BME280_pressure;Samples;Min_cycle;Max_cycle;Signal;HPM_P1;HPM_P2
2023/06/09 00:01:44;;;;;;;10.73;6.32;;;12.50;99.90;;;;;;5153623;27;20093;-70
2023/06/09 00:04:13;;;;;;;12.77;6.47;;;12.40;99.90;;;;;;5153711;27;20039;-70
2023/06/09 00:06:39;;;;;;;13.18;6.82;;;12.40;99.90;;;;;;5153589;27;20107;-70
2023/06/09 00:09:06;;;;;;;14.40;6.82;;;12.40;99.90;;;;;;5118679;27;20126;-70
2023/06/09 00:11:36;;;;;;;12.30;6.93;;;12.40;99.90;;;;;;5153832;27;20053;-70
2023/06/09 00:14:02;;;;;;;12.60;7.13;;;12.40;99.90;;;;;;5153922;27;20471;-71
2023/06/09 00:16:28;;;;;;;14.98;6.82;;;12.30;99.90;;;;;;5153695;27;20136;-71
2023/06/09 00:18:57;;;;;;;10.20;5.97;;;12.40;99.90;;;;;;5154042;27;20050;-71
2023/06/09 00:21:25;;;;;;;10.88;6.30;;;12.40;99.90;;;;;;5153755;27;20042;-70
2023/06/09 00:23:55;;;;;;;16.23;7.20;;;12.40;99.90;;;;;;5154714;27;20043;-70
2023/06/09 00:26:22;;;;;;;13.43;6.93;;;12.40;99.90;;;;;;5157814;27;20483;-70
2023/06/09 00:28:47;;;;;;;12.70;6.60;;;12.40;99.90;;;;;;5139394;27;20429;-70
2023/06/09 00:31:13;;;;;;;11.35;6.90;;;12.40;99.90;;;;;;5157755;27;20042;-70
2023/06/09 00:33:39;;;;;;;11.55;6.90;;;12.30;99.90;;;;;;5157792;27;20488;-70
2023/06/09 00:36:05;;;;;;;16.60;7.38;;;12.30;99.90;;;;;;5157560;27;20047;-70
2023/06/09 00:38:31;;;;;;;14.48;7.43;;;12.30;99.90;;;;;;5157448;27;20046;-70
2023/06/09 00:40:56;;;;;;;14.23;7.22;;;12.30;99.90;;;;;;5139138;27;20047;-71
2023/06/09 00:43:22;;;;;;;12.75;7.95;;;12.30;99.90;;;;;;5139300;27;20038;-71
2023/06/09 00:45:48;;;;;;;10.95;7.78;;;12.30;99.90;;;;;;5157293;27;20047;-70
2023/06/09 00:48:14;;;;;;;14.57;7.32;;;12.20;99.90;;;;;;5138647;27;20043;-70
2023/06/09 00:50:40;;;;;;;15.00;8.90;;;12.20;99.90;;;;;;5157357;27;20075;-70
2023/06/09 00:53:09;;;;;;;9.90;6.68;;;12.20;99.90;;;;;;5156883;27;20086;-70
2023/06/09 00:55:39;;;;;;;11.27;5.90;;;12.20;99.90;;;;;;5157518;27;20054;-70
2023/06/09 00:58:07;;;;;;;19.63;7.85;;;12.20;99.90;;;;;;5157078;27;20081;-71
2023/06/09 01:00:35;;;;;;;19.40;8.05;;;12.10;99.90;;;;;;5138932;27;20047;-70
2023/06/09 01:03:02;;;;;;;17.67;7.47;;;12.10;99.90;;;;;;5157299;27;20126;-70
2023/06/09 01:05:36;;;;;;;16.98;7.40;;;12.10;99.90;;;;;;5156912;27;20054;-70
2023/06/09 01:08:37;;;;;;;24.92;8.10;;;12.20;99.90;;;;;;5157342;27;20061;-70
2023/06/09 01:11:18;;;;;;;13.05;6.70;;;12.10;99.90;;;;;;5102149;27;20502;-70
2023/06/09 01:14:13;;;;;;;17.42;7.25;;;12.10;99.90;;;;;;5157342;27;20082;-70
2023/06/09 01:16:47;;;;;;;14.82;7.57;;;12.10;99.90;;;;;;5156741;27;20126;-70
2023/06/09 01:19:31;;;;;;;13.32;6.78;;;12.10;99.90;;;;;;5156835;27;20046;-70
2023/06/09 01:22:02;;;;;;;11.63;6.95;;;12.10;99.90;;;;;;5156961;27;20134;-71
2023/06/09 01:24:30;;;;;;;15.35;7.68;;;12.10;99.90;;;;;;5156623;27;20050;-70
2023/06/09 01:26:59;;;;;;;14.63;7.38;;;12.10;99.90;;;;;;5156180;27;20501;-71
2023/06/09 01:29:26;;;;;;;12.68;7.18;;;12.10;99.90;;;;;;5156567;27;20060;-70
2023/06/09 01:31:54;;;;;;;11.75;6.93;;;12.10;99.90;;;;;;5138131;27;20046;-70
2023/06/09 01:34:20;;;;;;;13.75;7.18;;;12.10;99.90;;;;;;5156416;27;20053;-70
2023/06/09 01:36:47;;;;;;;14.05;7.28;;;12.10;99.90;;;;;;5156313;27;20065;-72
2023/06/09 01:39:14;;;;;;;12.13;7.43;;;12.10;99.90;;;;;;5138216;27;20054;-69
2023/06/09 01:41:40;;;;;;;13.80;7.07;;;12.00;99.90;;;;;;5156522;27;20046;-69
2023/06/09 01:44:05;;;;;;;10.27;6.60;;;12.00;99.90;;;;;;5156537;27;20035;-71
2023/06/09 01:46:31;;;;;;;14.63;8.15;;;12.00;99.90;;;;;;5156073;27;20050;-69
2023/06/09 01:49:16;;;;;;;16.45;7.20;;;12.00;99.90;;;;;;5156024;27;20106;-69
2023/06/09 01:51:51;;;;;;;15.05;7.38;;;12.00;99.90;;;;;;5156412;27;20038;-69
2023/06/09 01:54:24;;;;;;;13.30;7.30;;;12.00;99.90;;;;;;5156215;27;20101;-70
2023/06/09 01:56:57;;;;;;;18.75;8.00;;;12.00;99.90;;;;;;5156649;27;20053;-68
2023/06/09 01:59:27;;;;;;;15.38;8.75;;;12.00;99.90;;;;;;5156315;27;20050;-69
2023/06/09 02:01:55;;;;;;;16.35;8.88;;;12.00;99.90;;;;;;5156249;27;20137;-69
2023/06/09 02:04:25;;;;;;;15.85;8.45;;;11.90;99.90;;;;;;5155742;27;20052;-69
2023/06/09 02:06:52;;;;;;;15.38;8.07;;;11.90;99.90;;;;;;5156028;27;20087;-69
2023/06/09 02:09:19;;;;;;;14.50;8.43;;;11.90;99.90;;;;;;5155616;27;20046;-71
2023/06/09 02:11:51;;;;;;;18.95;8.93;;;11.90;99.90;;;;;;5155574;27;20045;-69
2023/06/09 02:14:18;;;;;;;14.37;8.20;;;11.90;99.90;;;;;;5156114;27;20065;-69
2023/06/09 02:16:44;;;;;;;13.15;8.27;;;11.90;99.90;;;;;;5155306;27;20272;-69
2023/06/09 02:19:12;;;;;;;14.13;8.35;;;11.90;99.90;;;;;;5155388;27;20112;-70
2023/06/09 02:21:38;;;;;;;15.80;8.68;;;11.90;99.90;;;;;;5120971;27;20069;-69
2023/06/09 02:24:05;;;;;;;15.82;7.10;;;11.90;99.90;;;;;;5155079;27;20592;-70
2023/06/09 02:26:31;;;;;;;15.88;8.13;;;11.90;99.90;;;;;;5155023;27;20487;-70
2023/06/09 02:28:57;;;;;;;12.40;7.63;;;11.90;99.90;;;;;;5137631;27;20122;-70
2023/06/09 02:31:23;;;;;;;17.50;8.20;;;11.90;99.90;;;;;;5155155;27;20459;-70
2023/06/09 02:33:48;;;;;;;15.18;8.45;;;11.90;99.90;;;;;;5155055;27;20089;-69
2023/06/09 02:36:15;;;;;;;18.23;8.98;;;11.90;99.90;;;;;;5155231;27;20089;-69
2023/06/09 02:38:41;;;;;;;15.80;8.60;;;11.90;99.90;;;;;;5137082;27;20070;-70
2023/06/09 02:41:07;;;;;;;13.63;6.70;;;11.90;99.90;;;;;;5154860;27;20043;-70
2023/06/09 02:43:32;;;;;;;14.25;7.53;;;11.90;99.90;;;;;;5154972;27;20426;-69
2023/06/09 02:45:58;;;;;;;15.60;7.95;;;11.90;99.90;;;;;;5154747;27;20118;-70
2023/06/09 02:48:24;;;;;;;14.00;7.50;;;11.90;99.90;;;;;;5154356;27;20057;-69
2023/06/09 02:50:49;;;;;;;14.65;8.75;;;11.40;99.90;;;;;;5154824;27;20526;-70
2023/06/09 02:53:15;;;;;;;12.35;7.70;;;11.90;99.90;;;;;;5154532;27;20099;-70
2023/06/09 02:55:44;;;;;;;14.27;8.38;;;11.90;99.90;;;;;;5154992;27;20160;-70
2023/06/09 02:58:14;;;;;;;16.80;9.32;;;11.90;99.90;;;;;;5154981;27;20058;-70
2023/06/09 03:00:44;;;;;;;21.27;10.10;;;11.90;99.90;;;;;;5154714;27;20154;-70
2023/06/09 03:03:11;;;;;;;16.20;9.20;;;11.90;99.90;;;;;;5154970;27;20039;-69
2023/06/09 03:05:40;;;;;;;19.77;9.55;;;11.90;99.90;;;;;;5154947;27;20086;-69
2023/06/09 03:08:12;;;;;;;13.52;8.48;;;11.80;99.90;;;;;;5154091;27;20459;-69
2023/06/09 03:10:37;;;;;;;19.67;9.63;;;11.80;99.90;;;;;;5154908;27;20045;-69
2023/06/09 03:13:03;;;;;;;17.85;8.73;;;11.80;99.90;;;;;;5155503;27;20039;-69
2023/06/09 03:15:29;;;;;;;14.80;9.32;;;11.80;99.90;;;;;;5154762;27;20078;-69
2023/06/09 03:17:54;;;;;;;15.45;9.40;;;11.80;99.90;;;;;;5154686;27;20209;-70
2023/06/09 03:20:20;;;;;;;12.75;8.13;;;11.80;99.90;;;;;;5154633;27;20047;-70
2023/06/09 03:22:47;;;;;;;14.15;8.10;;;11.90;99.90;;;;;;5154668;27;20039;-69
2023/06/09 03:25:12;;;;;;;16.45;8.50;;;11.80;99.90;;;;;;5135890;27;20046;-71
2023/06/09 03:27:38;;;;;;;15.57;8.68;;;11.90;99.90;;;;;;5154897;27;20046;-69
2023/06/09 03:30:05;;;;;;;20.48;8.80;;;11.90;99.90;;;;;;5154381;27;20363;-69
2023/06/09 03:32:31;;;;;;;16.13;8.75;;;11.90;99.90;;;;;;5154679;27;20038;-70
2023/06/09 03:34:57;;;;;;;17.17;8.88;;;11.90;99.90;;;;;;5154652;27;20050;-69
2023/06/09 03:37:23;;;;;;;19.90;9.57;;;11.90;99.90;;;;;;5154134;27;20045;-69
2023/06/09 03:39:48;;;;;;;15.20;8.40;;;11.90;99.90;;;;;;5154170;27;20121;-69
2023/06/09 03:42:14;;;;;;;18.70;9.48;;;11.90;99.90;;;;;;5154109;27;20131;-71
2023/06/09 03:44:40;;;;;;;15.68;9.93;;;11.90;99.90;;;;;;5154124;27;20046;-69
2023/06/09 03:47:06;;;;;;;16.20;9.30;;;11.90;99.90;;;;;;5154335;27;20463;-70
2023/06/09 03:49:32;;;;;;;16.58;9.82;;;11.90;99.90;;;;;;5154315;27;20050;-69
2023/06/09 03:51:57;;;;;;;13.55;8.70;;;11.90;99.90;;;;;;5153949;27;20068;-69
2023/06/09 03:54:23;;;;;;;20.55;9.73;;;11.90;99.90;;;;;;5131973;28;20047;-69
2023/06/09 03:56:49;;;;;;;15.32;9.30;;;12.00;99.90;;;;;;5132287;28;20055;-70
2023/06/09 03:59:15;;;;;;;19.67;10.70;;;12.00;99.90;;;;;;5134518;27;20505;-70
2023/06/09 04:01:40;;;;;;;15.75;10.32;;;12.00;99.90;;;;;;5136502;27;20039;-69
2023/06/09 04:04:06;;;;;;;18.27;10.38;;;12.00;99.90;;;;;;5136627;27;20043;-68
2023/06/09 04:06:32;;;;;;;19.38;10.00;;;12.00;99.90;;;;;;5137316;27;20053;-69
2023/06/09 04:08:57;;;;;;;18.90;10.07;;;12.10;99.90;;;;;;5137324;27;20168;-69
2023/06/09 04:11:23;;;;;;;18.70;10.25;;;12.10;99.90;;;;;;5137290;27;20046;-69
2023/06/09 04:13:49;;;;;;;17.20;9.93;;;12.10;99.90;;;;;;5119776;27;20461;-69
2023/06/09 04:16:18;;;;;;;21.25;10.82;;;12.20;99.90;;;;;;5137156;27;20499;-71
2023/06/09 04:18:43;;;;;;;19.20;10.43;;;12.20;99.90;;;;;;5137289;27;20046;-69
2023/06/09 04:21:11;;;;;;;19.77;10.50;;;12.30;99.90;;;;;;5137052;27;20039;-71
2023/06/09 04:23:38;;;;;;;18.15;10.18;;;12.30;99.90;;;;;;5137426;27;20487;-69
2023/06/09 04:26:05;;;;;;;22.08;10.43;;;12.30;99.90;;;;;;5137150;27;20095;-70
2023/06/09 04:28:32;;;;;;;17.40;10.40;;;12.40;99.90;;;;;;5137431;27;20110;-71
2023/06/09 04:30:58;;;;;;;19.10;9.65;;;12.40;99.90;;;;;;5135853;27;20103;-70
2023/06/09 04:33:26;;;;;;;17.25;9.85;;;12.40;99.90;;;;;;5137299;27;20472;-70
2023/06/09 04:35:54;;;;;;;15.07;10.63;;;12.50;99.90;;;;;;5136805;27;20392;-71
2023/06/09 04:38:23;;;;;;;16.27;9.38;;;12.60;99.90;;;;;;5137297;27;20093;-71
2023/06/09 04:40:49;;;;;;;17.73;11.40;;;12.60;99.90;;;;;;5136372;27;20047;-71
2023/06/09 04:43:16;;;;;;;15.75;8.93;;;12.70;99.90;;;;;;5137074;27;20058;-71
2023/06/09 04:45:43;;;;;;;18.40;9.68;;;12.80;99.90;;;;;;5136556;27;20043;-69
2023/06/09 04:48:09;;;;;;;18.42;10.75;;;12.80;99.90;;;;;;5136225;27;20043;-70
2023/06/09 04:50:36;;;;;;;18.40;10.38;;;12.90;99.90;;;;;;5137067;27;20049;-71
2023/06/09 04:53:07;;;;;;;20.50;10.82;;;13.00;99.90;;;;;;5137005;27;20074;-70
2023/06/09 04:55:35;;;;;;;22.13;11.60;;;13.00;99.90;;;;;;5157130;27;20129;-71
2023/06/09 04:58:00;;;;;;;15.38;10.18;;;13.10;99.90;;;;;;5157040;27;20046;-70
2023/06/09 05:00:28;;;;;;;21.92;10.43;;;13.10;99.90;;;;;;5156970;27;20046;-70
2023/06/09 05:02:56;;;;;;;19.45;10.40;;;13.20;99.90;;;;;;5156870;27;20039;-71
2023/06/09 05:05:23;;;;;;;14.55;10.40;;;13.20;99.90;;;;;;5156640;27;20064;-70
2023/06/09 05:07:49;;;;;;;19.70;10.77;;;13.30;99.90;;;;;;5138540;27;20062;-70
2023/06/09 05:10:15;;;;;;;15.77;9.50;;;12.00;99.90;;;;;;5156356;27;20086;-71
2023/06/09 05:12:41;;;;;;;23.48;10.52;;;13.40;99.90;;;;;;5156425;27;20046;-69
2023/06/09 05:15:07;;;;;;;16.75;10.50;;;14.10;99.90;;;;;;5138853;27;20039;-68
2023/06/09 05:17:34;;;;;;;20.60;9.98;;;13.50;99.90;;;;;;5156566;27;20050;-68
2023/06/09 05:20:00;;;;;;;16.98;9.82;;;13.60;99.90;;;;;;5156155;27;20081;-68
2023/06/09 05:22:26;;;;;;;18.52;10.50;;;13.60;99.90;;;;;;5156237;27;20039;-71
2023/06/09 05:24:52;;;;;;;17.92;10.38;;;13.70;99.90;;;;;;5156747;27;20392;-71
2023/06/09 05:27:18;;;;;;;20.80;12.63;;;13.80;99.90;;;;;;5137888;27;20086;-71
2023/06/09 05:29:43;;;;;;;20.63;12.00;;;13.90;99.90;;;;;;5156210;27;20054;-70
2023/06/09 05:32:09;;;;;;;22.02;10.45;;;13.80;99.90;;;;;;5155872;27;20087;-70
2023/06/09 05:34:35;;;;;;;24.27;12.25;;;13.90;99.90;;;;;;5138450;27;20054;-70
2023/06/09 05:37:02;;;;;;;19.85;12.38;;;13.90;99.90;;;;;;5137779;27;20156;-70
2023/06/09 05:39:28;;;;;;;24.13;12.02;;;14.00;99.90;;;;;;5156085;27;20065;-70
2023/06/09 05:41:53;;;;;;;17.20;11.05;;;14.00;99.90;;;;;;5137675;27;20047;-70
2023/06/09 05:44:19;;;;;;;19.73;11.35;;;14.10;99.90;;;;;;5137425;27;20043;-70
2023/06/09 05:46:45;;;;;;;20.33;11.80;;;14.20;99.90;;;;;;5155522;27;20081;-70
2023/06/09 05:49:10;;;;;;;22.67;12.43;;;14.40;99.90;;;;;;5155709;27;20121;-70
2023/06/09 05:51:36;;;;;;;24.17;11.98;;;14.50;99.90;;;;;;5137668;27;20046;-70
2023/06/09 05:54:03;;;;;;;20.85;11.98;;;14.50;99.90;;;;;;5155732;27;20129;-70
2023/06/09 05:56:29;;;;;;;22.23;11.75;;;14.60;99.90;;;;;;5156139;27;20096;-70
2023/06/09 05:59:03;;;;;;;19.08;11.75;;;14.80;99.90;;;;;;5137479;27;20560;-69
2023/06/09 06:01:30;;;;;;;22.42;11.05;;;14.90;99.90;;;;;;5137819;27;20421;-70
2023/06/09 06:03:55;;;;;;;14.52;10.25;;;14.90;99.90;;;;;;5155605;27;20061;-70
2023/06/09 06:06:21;;;;;;;18.77;11.45;;;15.00;99.90;;;;;;5155480;27;20371;-70
2023/06/09 06:08:47;;;;;;;17.00;11.02;;;15.10;99.90;;;;;;5155451;27;20485;-70
2023/06/09 06:11:12;;;;;;;15.93;10.50;;;15.20;99.90;;;;;;5156092;27;20035;-70
2023/06/09 06:13:38;;;;;;;15.10;9.23;;;15.40;99.90;;;;;;5156228;27;20047;-70
2023/06/09 06:16:04;;;;;;;14.50;8.90;;;15.60;99.90;;;;;;5155671;27;20409;-70
2023/06/09 06:18:30;;;;;;;17.98;9.20;;;15.90;99.90;;;;;;5136660;27;20053;-70
2023/06/09 06:20:55;;;;;;;15.38;9.05;;;16.60;99.90;;;;;;5155048;27;20131;-70
2023/06/09 06:23:21;;;;;;;13.27;9.13;;;17.40;99.90;;;;;;5136762;27;20095;-70
2023/06/09 06:25:47;;;;;;;15.77;8.93;;;18.00;99.90;;;;;;5155716;27;20047;-70
2023/06/09 06:28:14;;;;;;;14.52;8.68;;;18.40;99.90;;;;;;5155375;27;20524;-71
2023/06/09 06:30:40;;;;;;;13.38;7.85;;;18.90;99.90;;;;;;5155076;27;20051;-70
2023/06/09 06:33:06;;;;;;;15.93;8.38;;;19.50;99.90;;;;;;5136423;27;20084;-70
2023/06/09 06:35:32;;;;;;;16.02;9.07;;;20.00;99.90;;;;;;5136509;27;20074;-69
2023/06/09 06:37:58;;;;;;;13.35;8.93;;;20.20;99.90;;;;;;5155881;27;20061;-70
2023/06/09 06:40:24;;;;;;;11.93;7.07;;;20.50;99.90;;;;;;5154653;27;20492;-70
2023/06/09 06:42:51;;;;;;;10.75;6.85;;;20.90;99.90;;;;;;5154672;27;20057;-71
2023/06/09 06:45:17;;;;;;;9.57;6.70;;;21.30;99.90;;;;;;5136708;27;20046;-71
2023/06/09 06:47:45;;;;;;;13.15;7.22;;;21.50;99.90;;;;;;5154994;27;20104;-69
2023/06/09 06:50:12;;;;;;;12.23;7.47;;;21.90;99.90;;;;;;5154599;27;20047;-71
2023/06/09 06:52:38;;;;;;;10.88;6.93;;;21.80;99.90;;;;;;5155069;27;20099;-70
2023/06/09 06:55:07;;;;;;;12.15;6.82;;;22.10;99.90;;;;;;5154147;27;20050;-70
2023/06/09 06:57:34;;;;;;;7.07;5.45;;;22.00;99.90;;;;;;5154622;27;20053;-70
2023/06/09 07:00:00;;;;;;;12.68;6.05;;;22.60;99.90;;;;;;5136777;27;20438;-69
2023/06/09 07:02:25;;;;;;;12.77;6.07;;;22.90;99.90;;;;;;5154613;27;20038;-69
2023/06/09 07:04:51;;;;;;;10.85;6.22;;;23.30;99.90;;;;;;5154927;27;20034;-69
2023/06/09 07:07:17;;;;;;;11.07;6.68;;;23.40;99.90;;;;;;5154594;27;20510;-70
2023/06/09 07:09:42;;;;;;;11.82;5.80;;;23.60;99.90;;;;;;5154666;27;20387;-69
2023/06/09 07:12:08;;;;;;;11.57;6.50;;;23.90;99.90;;;;;;5154293;27;20085;-69
2023/06/09 07:14:34;;;;;;;10.50;5.90;;;23.80;99.50;;;;;;5135923;27;20081;-70
2023/06/09 07:17:00;;;;;;;9.45;5.70;;;24.20;99.50;;;;;;5154597;27;20057;-70
2023/06/09 07:19:26;;;;;;;11.07;5.47;;;24.40;99.00;;;;;;5154074;27;20099;-69
2023/06/09 07:21:51;;;;;;;10.30;5.10;;;24.70;98.60;;;;;;5153956;27;20034;-70
2023/06/09 07:24:17;;;;;;;9.20;6.63;;;24.80;98.20;;;;;;5154237;27;20489;-69
2023/06/09 07:26:43;;;;;;;8.90;5.93;;;24.70;97.50;;;;;;5135808;27;20045;-69
2023/06/09 07:29:08;;;;;;;11.88;6.30;;;24.40;97.60;;;;;;5154131;27;20078;-71
2023/06/09 07:31:34;;;;;;;10.13;4.95;;;24.20;98.00;;;;;;5154101;27;20121;-69
2023/06/09 07:34:00;;;;;;;8.20;4.75;;;24.80;98.10;;;;;;5153638;27;20061;-70
2023/06/09 07:36:29;;;;;;;15.25;6.68;;;24.90;98.20;;;;;;5153989;27;20043;-69
2023/06/09 07:38:55;;;;;;;11.88;5.82;;;25.00;97.50;;;;;;5154074;27;20050;-69
2023/06/09 07:41:21;;;;;;;9.25;5.70;;;25.30;97.30;;;;;;5154304;27;20473;-69
2023/06/09 07:43:47;;;;;;;9.50;5.93;;;25.70;97.30;;;;;;5153923;27;20070;-69
2023/06/09 07:46:14;;;;;;;8.55;4.82;;;24.90;96.80;;;;;;5153821;27;20099;-72
2023/06/09 07:48:42;;;;;;;11.88;6.20;;;25.40;97.20;;;;;;5153852;27;20066;-69
2023/06/09 07:51:09;;;;;;;12.23;5.70;;;25.50;96.80;;;;;;5154387;27;20042;-69
2023/06/09 07:53:36;;;;;;;7.85;4.80;;;25.60;96.10;;;;;;5154163;27;20062;-69
2023/06/09 07:56:02;;;;;;;10.20;5.28;;;26.10;95.80;;;;;;5154378;27;20062;-71
2023/06/09 07:58:28;;;;;;;12.77;6.43;;;26.30;95.30;;;;;;5153757;27;20051;-69
2023/06/09 08:00:54;;;;;;;8.85;4.88;;;26.30;94.80;;;;;;5154143;27;20038;-71
2023/06/09 08:03:19;;;;;;;7.18;5.20;;;26.20;94.90;;;;;;5153716;27;20038;-71
2023/06/09 08:05:45;;;;;;;9.35;5.43;;;26.20;94.80;;;;;;5136025;27;20046;-71
2023/06/09 08:08:11;;;;;;;10.35;5.35;;;26.10;94.50;;;;;;5154000;27;20113;-69
2023/06/09 08:10:36;;;;;;;8.27;5.38;;;25.90;94.30;;;;;;5153636;27;20043;-68
2023/06/09 08:13:02;;;;;;;9.23;5.68;;;26.00;94.90;;;;;;5153585;27;20038;-69
2023/06/09 08:15:27;;;;;;;8.93;4.63;;;26.00;94.80;;;;;;5153619;27;20118;-71
2023/06/09 08:17:53;;;;;;;8.63;5.43;;;26.60;94.40;;;;;;5153194;27;20100;-69
2023/06/09 08:20:19;;;;;;;9.90;5.05;;;26.80;93.50;;;;;;5153746;27;20042;-71
2023/06/09 08:22:45;;;;;;;9.18;5.28;;;26.60;93.90;;;;;;5135220;27;20073;-70
2023/06/09 08:25:11;;;;;;;10.15;5.30;;;26.60;93.90;;;;;;5153516;27;20051;-69
2023/06/09 08:27:37;;;;;;;14.13;4.88;;;26.70;93.50;;;;;;5154337;27;20053;-70
2023/06/09 08:30:03;;;;;;;7.18;5.00;;;27.10;93.40;;;;;;5153536;27;20047;-70
2023/06/09 08:32:29;;;;;;;8.70;4.60;;;27.50;92.90;;;;;;5153550;27;20444;-69
2023/06/09 08:34:55;;;;;;;9.07;5.43;;;27.70;92.60;;;;;;5153359;27;20443;-69
2023/06/09 08:37:21;;;;;;;11.90;5.20;;;27.60;92.50;;;;;;5153499;27;20053;-69
2023/06/09 08:39:47;;;;;;;7.53;4.90;;;27.20;92.40;;;;;;5153931;27;20481;-69
2023/06/09 08:42:21;;;;;;;8.02;4.85;;;27.20;92.70;;;;;;5153433;27;20053;-71
2023/06/09 08:44:58;;;;;;;8.98;4.97;;;27.20;91.60;;;;;;5153385;27;20118;-69
2023/06/09 08:47:25;;;;;;;7.95;5.05;;;27.20;92.00;;;;;;5156314;27;20042;-69
2023/06/09 08:49:57;;;;;;;6.43;4.85;;;27.30;92.80;;;;;;5157088;27;20046;-69
2023/06/09 08:52:24;;;;;;;8.25;4.28;;;27.00;92.60;;;;;;5157117;27;20143;-70
2023/06/09 08:54:52;;;;;;;9.50;4.68;;;27.40;92.60;;;;;;5138341;27;20054;-70
2023/06/09 08:57:18;;;;;;;9.02;4.35;;;27.70;92.30;;;;;;5156828;27;20047;-70
2023/06/09 08:59:47;;;;;;;9.07;4.90;;;27.90;90.70;;;;;;5156761;27;20368;-70
2023/06/09 09:02:13;;;;;;;8.00;4.75;;;28.10;91.20;;;;;;5157444;27;20047;-70
2023/06/09 09:04:40;;;;;;;8.70;4.78;;;28.00;91.00;;;;;;5156835;27;20043;-70
2023/06/09 09:07:06;;;;;;;7.60;4.15;;;28.10;91.00;;;;;;5157298;27;20126;-70
2023/06/09 09:09:32;;;;;;;6.50;4.22;;;28.30;90.70;;;;;;5156849;27;20050;-69
2023/06/09 09:11:59;;;;;;;7.45;4.15;;;28.80;90.30;;;;;;5156766;27;20031;-69
2023/06/09 09:14:24;;;;;;;8.27;5.15;;;29.10;90.10;;;;;;5156684;27;20060;-70
2023/06/09 09:16:50;;;;;;;9.80;4.95;;;29.40;89.20;;;;;;5138782;27;20129;-70
2023/06/09 09:19:27;;;;;;;12.20;4.88;;;29.40;87.60;;;;;;5156521;27;20121;-70
2023/06/09 09:21:56;;;;;;;5.63;4.18;;;29.10;87.80;;;;;;5156888;27;20052;-69
2023/06/09 09:24:32;;;;;;;8.93;4.57;;;29.30;87.10;;;;;;5156608;27;20377;-72
2023/06/09 09:26:58;;;;;;;6.15;4.45;;;29.00;87.90;;;;;;5156637;27;20047;-69
2023/06/09 09:29:28;;;;;;;8.48;3.78;;;28.80;89.00;;;;;;5156965;27;20103;-70
2023/06/09 09:31:58;;;;;;;10.43;4.47;;;28.90;88.60;;;;;;5138229;27;20071;-70
2023/06/09 09:34:26;;;;;;;8.55;4.38;;;29.20;88.70;;;;;;5156326;27;20043;-71
2023/06/09 09:36:55;;;;;;;7.25;4.95;;;29.50;87.30;;;;;;5156572;27;20466;-69
2023/06/09 09:39:22;;;;;;;5.38;4.03;;;29.50;86.10;;;;;;5156158;27;20054;-70
2023/06/09 09:42:08;;;;;;;10.43;5.03;;;29.20;86.90;;;;;;5156219;27;20043;-70
2023/06/09 09:44:40;;;;;;;6.72;4.25;;;29.30;85.00;;;;;;5156871;27;20118;-70
2023/06/09 09:47:12;;;;;;;8.77;4.55;;;29.40;86.40;;;;;;5137878;27;20070;-72
2023/06/09 09:49:52;;;;;;;6.70;4.53;;;29.30;85.70;;;;;;5156558;27;20484;-70
2023/06/09 09:52:29;;;;;;;6.30;4.03;;;29.40;85.50;;;;;;5156207;27;20121;-70
2023/06/09 09:54:58;;;;;;;6.57;4.07;;;28.60;82.80;;;;;;5156744;27;20063;-70
2023/06/09 09:57:28;;;;;;;5.25;4.70;;;29.10;86.10;;;;;;5155575;27;20050;-70
2023/06/09 09:59:55;;;;;;;6.85;4.53;;;29.30;84.50;;;;;;5155949;27;20081;-70
2023/06/09 10:02:24;;;;;;;7.93;4.78;;;29.40;83.60;;;;;;5155806;27;20046;-71
2023/06/09 10:04:50;;;;;;;7.22;4.97;;;29.40;83.40;;;;;;5155783;27;20046;-71
2023/06/09 10:07:23;;;;;;;7.85;4.20;;;29.60;83.00;;;;;;5155772;27;20046;-70
2023/06/09 10:09:51;;;;;;;7.20;5.93;;;29.80;81.70;;;;;;5156351;27;20045;-70
2023/06/09 10:12:19;;;;;;;5.75;4.05;;;30.10;82.00;;;;;;5155401;27;20479;-71
2023/06/09 10:14:46;;;;;;;7.35;4.05;;;30.10;82.20;;;;;;5155639;27;20086;-70
2023/06/09 10:17:13;;;;;;;5.45;4.10;;;30.10;81.30;;;;;;5120665;27;20055;-71
2023/06/09 10:19:40;;;;;;;5.70;4.65;;;30.10;81.20;;;;;;5137411;27;20082;-71
2023/06/09 10:22:06;;;;;;;7.65;4.35;;;30.20;80.60;;;;;;5155025;27;20557;-71
2023/06/09 10:24:33;;;;;;;7.25;4.25;;;30.10;79.40;;;;;;5155384;27;20125;-70
2023/06/09 10:26:59;;;;;;;6.15;4.30;;;30.10;80.50;;;;;;5155351;27;20042;-70
2023/06/09 10:29:27;;;;;;;5.82;3.60;;;30.10;80.50;;;;;;5155610;27;20051;-71
2023/06/09 10:31:54;;;;;;;5.63;4.15;;;30.10;80.20;;;;;;5155168;27;20475;-70
2023/06/09 10:34:20;;;;;;;7.80;4.05;;;30.00;80.60;;;;;;5137185;27;20050;-72
2023/06/09 10:36:51;;;;;;;6.32;4.00;;;30.00;80.30;;;;;;5155230;27;20046;-70
2023/06/09 10:39:19;;;;;;;10.43;4.57;;;29.90;80.40;;;;;;5155101;27;20046;-72
2023/06/09 10:41:59;;;;;;;4.85;4.10;;;30.00;79.50;;;;;;5154618;27;20508;-71
2023/06/09 10:44:45;;;;;;;6.07;4.35;;;30.00;78.00;;;;;;5155044;27;20089;-70
2023/06/09 10:47:31;;;;;;;6.07;3.80;;;29.80;79.90;;;;;;5154490;27;20050;-71
2023/06/09 10:49:56;;;;;;;8.75;4.25;;;29.60;79.90;;;;;;5155130;27;20042;-70
2023/06/09 10:52:41;;;;;;;6.75;4.50;;;29.60;80.70;;;;;;5155009;27;20035;-71
2023/06/09 10:55:17;;;;;;;6.20;4.28;;;29.70;77.70;;;;;;5155265;27;20059;-71
2023/06/09 10:57:43;;;;;;;9.73;3.97;;;29.70;77.90;;;;;;5154829;27;20043;-71
2023/06/09 11:00:13;;;;;;;6.63;3.33;;;29.90;79.70;;;;;;5155224;27;20049;-73
2023/06/09 11:02:40;;;;;;;9.25;4.05;;;30.00;77.80;;;;;;5154657;27;20057;-72
2023/06/09 11:05:08;;;;;;;6.97;3.88;;;29.80;77.40;;;;;;5157242;27;20050;-71
2023/06/09 11:08:03;;;;;;;5.95;4.30;;;29.90;77.10;;;;;;5136000;27;20053;-71
2023/06/09 11:10:30;;;;;;;7.18;4.32;;;29.60;77.10;;;;;;5151089;27;20055;-71
2023/06/09 11:12:56;;;;;;;6.28;4.57;;;29.40;75.80;;;;;;5154325;27;20156;-72
2023/06/09 11:15:29;;;;;;;7.95;4.18;;;29.20;75.80;;;;;;5156029;27;20047;-73
2023/06/09 11:17:56;;;;;;;6.50;4.45;;;29.20;76.40;;;;;;5136617;27;20055;-72
2023/06/09 11:20:23;;;;;;;7.13;4.72;;;29.10;76.30;;;;;;5154684;27;20043;-72
2023/06/09 11:22:52;;;;;;;6.75;4.57;;;28.90;76.50;;;;;;5154081;27;20050;-72
2023/06/09 11:25:17;;;;;;;4.70;3.63;;;28.80;76.30;;;;;;5154183;27;20386;-73
2023/06/09 11:28:09;;;;;;;6.85;4.72;;;28.90;76.60;;;;;;5154159;27;20053;-71
2023/06/09 11:31:02;;;;;;;8.25;5.22;;;28.90;77.40;;;;;;5153989;27;20047;-71
2023/06/09 11:33:53;;;;;;;6.57;4.72;;;28.80;77.10;;;;;;5153950;27;20047;-72
2023/06/09 11:36:21;;;;;;;9.13;4.50;;;28.90;76.30;;;;;;5154568;27;20117;-71
2023/06/09 11:38:51;;;;;;;8.70;5.07;;;28.90;76.50;;;;;;5154341;27;20043;-72
2023/06/09 11:41:22;;;;;;;7.65;4.47;;;28.90;76.00;;;;;;5153905;27;20114;-71
2023/06/09 11:43:53;;;;;;;9.68;4.85;;;28.80;76.10;;;;;;5154365;27;20082;-71
2023/06/09 11:46:19;;;;;;;5.75;4.53;;;28.90;76.60;;;;;;5154238;27;20395;-71
2023/06/09 11:49:21;;;;;;;6.90;4.70;;;28.80;75.50;;;;;;5153727;27;20054;-71
2023/06/09 11:51:55;;;;;;;7.15;5.15;;;28.70;76.30;;;;;;5099876;27;20051;-71
2023/06/09 11:54:21;;;;;;;9.48;5.00;;;28.80;75.70;;;;;;5153855;27;20063;-71
2023/06/09 11:56:47;;;;;;;8.02;4.93;;;28.90;75.60;;;;;;5153427;27;20542;-72
2023/06/09 11:59:18;;;;;;;6.15;5.13;;;28.80;75.20;;;;;;5153733;27;20170;-71
2023/06/09 12:01:43;;;;;;;7.72;5.03;;;28.70;75.60;;;;;;5154003;27;20125;-71
2023/06/09 12:04:09;;;;;;;6.80;4.63;;;28.90;76.20;;;;;;5153785;27;20195;-71
2023/06/09 12:06:36;;;;;;;7.95;4.55;;;28.80;75.60;;;;;;5153725;27;20561;-71
2023/06/09 12:09:20;;;;;;;6.95;4.40;;;28.90;76.70;;;;;;5153705;27;20095;-71
2023/06/09 12:11:53;;;;;;;6.55;4.45;;;29.00;76.30;;;;;;5154342;27;20054;-71
2023/06/09 12:14:19;;;;;;;6.53;5.10;;;29.20;77.10;;;;;;5153628;27;20046;-71
2023/06/09 12:16:45;;;;;;;8.70;5.03;;;29.10;75.80;;;;;;5154008;27;20065;-71
2023/06/09 12:19:11;;;;;;;5.13;4.45;;;29.00;75.60;;;;;;5153464;27;20039;-71
2023/06/09 12:21:36;;;;;;;5.63;4.80;;;28.90;75.50;;;;;;5157464;27;20042;-71
2023/06/09 12:24:02;;;;;;;8.85;4.97;;;28.60;75.60;;;;;;5139357;27;20047;-71
2023/06/09 12:26:40;;;;;;;6.10;4.70;;;28.70;75.60;;;;;;5157511;27;20359;-72
2023/06/09 12:29:06;;;;;;;8.32;5.35;;;28.80;75.50;;;;;;5158065;27;20070;-72
2023/06/09 12:31:32;;;;;;;9.77;4.60;;;28.80;75.80;;;;;;5157562;27;20432;-72
2023/06/09 12:33:58;;;;;;;5.50;4.50;;;28.90;76.10;;;;;;5157443;27;20470;-71
2023/06/09 12:36:25;;;;;;;5.47;4.07;;;28.90;75.80;;;;;;5157385;27;20067;-72
2023/06/09 12:38:51;;;;;;;8.10;4.80;;;28.90;76.10;;;;;;5157657;27;20096;-72
2023/06/09 12:41:17;;;;;;;5.97;4.57;;;29.00;76.90;;;;;;5157187;27;20455;-72
2023/06/09 12:43:59;;;;;;;7.55;4.47;;;28.90;76.40;;;;;;5139309;27;20078;-71